x

West Sea Otter (46204) Wave Buoy

4:00pm - Mon 6th Jul 2015 All times are PDT. -7 hours from GMT.

  • Sig Wave height 5.2ft
  • Peak Period 6s
  • Wind
    9mph, 11mph gusts
  • Sea Temp 60°f
  • 空気 Temp 59°f
  • Sea Pressure 1015.7mb
  • West Sea Otter
  • West Sea Otter

More Historic Weather Station data

Upgrade to MSW Pro to gain access to the past 30 days of data for over 8000 Wavebouys and Weather Stations around the globe.

Join Pro

Comparision Forecast

View Surf forecast
   
Mon 07/06 4:00pm 5ft 6s 9 11 mph 1015.7mb 60f 59f
3:00pm 5ft 6s 9 11 mph 1015.7mb 60f 59f
2:00pm 5.5ft 7s 7 9 mph 1015.6mb 60f 59f
12:00pm 4.5ft 8s 4
mph
1015.1mb 60f 58f
11:00am 4.5ft 8s 4
mph
1014.9mb 59f 58f
9:00am 4.5ft 9s 11 13 mph 1014.2mb 58f 58f
8:00am 5ft 6s 13 16 mph 1013.8mb 58f 58f
7:00am 5ft 6s 13 18 mph 1013.4mb 58f 58f
6:00am 5ft 6s 16 18 mph 1013.1mb 58f 58f
4:00am 5ft 6s 16 18 mph 1012.5mb 58f 59f
3:00am 5ft 6s 16 18 mph 1012.6mb 58f 59f
12:00am 5ft 7s 13 16 mph 1012.6mb 58f 60f
Sun 07/05 11:00pm 5ft 7s 13 16 mph 1012.6mb 58f 60f
10:00pm 5ft 7s 16 18 mph 1012.5mb 58f 60f
9:00pm 5ft 8s 16 18 mph 1012.5mb 58f 60f
8:00pm 5ft 7s 16 18 mph 1012.8mb 59f 61f
7:00pm 5ft 7s 16 18 mph 1012.7mb 58f 61f
5:00pm 6ft 5s 16 20 mph 1013.1mb 58f 60f
2:00pm 7ft 7s 18 22 mph 1013.7mb 58f 59f
12:00pm 6.5ft 8s 18 22 mph 1014.2mb 58f 59f
9:00am 6.5ft 7s 13 18 mph 1014.2mb 58f 59f
6:00am 7ft 7s 20 22 mph 1013.6mb 58f 59f
5:00am 8ft 8s 22 27 mph 1013.2mb 58f 59f
4:00am 8.5ft 7s 22 27 mph 1013.1mb 58f 59f
3:00am 9ft 7s 25 27 mph 1013.1mb 58f 59f
2:00am 8ft 7s 25 29 mph 1013.2mb 58f 60f
12:00am 8.5ft 8s 25 31 mph 1013.8mb 58f 60f
Sat 07/04 10:00pm 9ft 7s 27 31 mph 1014.5mb 58f 60f
9:00pm 9ft 8s 27 34 mph 1014.7mb 58f 60f
7:00pm 8ft 7s 27 34 mph 1014.7mb 58f 60f
6:00pm 8ft 7s 27 31 mph 1015.3mb 59f 60f
5:00pm 8ft 8s 27 34 mph 1015.5mb 59f 60f
2:00pm 8ft 7s 27 31 mph 1016.9mb 59f 60f
12:00pm 8ft 7s 25 29 mph 1018.2mb 59f 60f
9:00am 6ft 7s 22 27 mph 1018.6mb 59f 59f
6:00am 6ft 6s 20 25 mph 1018.4mb 60f 60f
4:00am 6.5ft 6s 25 29 mph 1018mb 60f 60f
2:00am 7ft 6s 25 31 mph 1018.1mb 60f 60f
1:00am 6.5ft 6s 22 27 mph 1018.4mb 60f 61f
12:00am 6ft 6s 22 27 mph 1018.8mb 60f 60f
Fri 07/03 11:00pm 6ft 7s 20 25 mph 1019.1mb 60f 60f
10:00pm 6ft 7s 18 22 mph 1019.4mb 60f 60f
9:00pm 5.5ft 7s 18 22 mph 1019.3mb 60f 60f
8:00pm 5.5ft 6s 20 25 mph 1019.3mb 60f 60f
7:00pm 5.5ft 6s 20 25 mph 1019.1mb 60f 60f
6:00pm 6ft 7s 20 25 mph 1019.5mb 60f 60f
5:00pm 6ft 7s 20 25 mph 1019.8mb 60f 59f
3:00pm 7ft 6s 22 27 mph 1020.5mb 60f 59f
2:00pm 6.5ft 6s 22 27 mph 1020.5mb 60f 59f
12:00pm 7ft 6s 22 27 mph 1021.1mb 60f 59f
11:00am 7ft 7s 22 27 mph 1021.4mb 60f 58f
8:00am 6.5ft 6s 25 29 mph 1021.4mb 60f 58f
7:00am 6ft 6s 25 29 mph 1021.1mb 60f 59f
6:00am 6ft 6s 25 29 mph 1021mb 60f 58f
5:00am 5ft 5s 25 31 mph 1020.8mb 60f 59f
4:00am 5ft 5s 22 27 mph 1020.7mb 60f 59f
2:00am  -   -  20
mph
- - -
1:00am 4ft 4s 22 27 mph 1021mb 60f 60f